createdAt,value
2023-05-09T00:02:22.091Z,101160.63
2023-05-09T00:07:27.214Z,101157.63
2023-05-09T00:12:33.704Z,101168.44
2023-05-09T00:17:39.785Z,101170.56
2023-05-09T00:22:44.916Z,101161.50
2023-05-09T00:27:49.889Z,101165.66
2023-05-09T00:32:54.920Z,101164.66
2023-05-09T00:38:00.636Z,101154.75
2023-05-09T00:43:06.063Z,101148.56
2023-05-09T00:48:11.791Z,101142.75
2023-05-09T00:53:16.698Z,101146.88
2023-05-09T00:58:22.174Z,101144.38
2023-05-09T01:03:26.860Z,101149.91
2023-05-09T01:08:55.630Z,101144.28
2023-05-09T01:14:27.417Z,101144.41
2023-05-09T01:19:31.979Z,101145.38
2023-05-09T01:24:49.497Z,101153.19
2023-05-09T01:29:59.684Z,101149.28
2023-05-09T01:35:07.451Z,101141.81
2023-05-09T01:40:22.085Z,101141.13
2023-05-09T01:45:28.965Z,101144.22
2023-05-09T01:50:36.624Z,101149.94
2023-05-09T01:55:43.101Z,101146.78
2023-05-09T02:00:52.412Z,101149.50
2023-05-09T02:05:59.526Z,101147.22
2023-05-09T02:11:04.558Z,101148.97
2023-05-09T02:16:12.302Z,101147.97
2023-05-09T02:21:17.608Z,101152.59
2023-05-09T02:26:21.982Z,101141.16
2023-05-09T02:31:27.319Z,101145.19
2023-05-09T02:36:33.962Z,101137.84
2023-05-09T02:41:38.833Z,101143.69
2023-05-09T02:46:43.945Z,101145.19
2023-05-09T02:51:49.083Z,101142.78
2023-05-09T02:56:54.123Z,101142.13
2023-05-09T03:01:59.270Z,101131.38
2023-05-09T03:07:04.244Z,101128.13
2023-05-09T03:12:10.924Z,101114.03
2023-05-09T03:17:22.475Z,101111.69
2023-05-09T03:22:27.282Z,101104.94
2023-05-09T03:27:37.401Z,101102.59
2023-05-09T03:32:45.622Z,101084.41
2023-05-09T03:37:50.797Z,101093.78
2023-05-09T03:42:56.029Z,101077.47
2023-05-09T03:48:00.693Z,101070.28
2023-05-09T03:53:06.662Z,101066.63
2023-05-09T03:58:14.392Z,101067.59
2023-05-09T04:03:21.071Z,101052.53
2023-05-09T04:08:29.445Z,101057.34
2023-05-09T04:13:36.116Z,101043.09
2023-05-09T04:18:48.387Z,101042.75
2023-05-09T04:23:53.886Z,101028.50
2023-05-09T04:29:06.691Z,101019.09
2023-05-09T04:34:14.336Z,101023.28
2023-05-09T04:39:20.930Z,101002.94
2023-05-09T04:44:37.464Z,101003.00
2023-05-09T04:49:42.485Z,101004.41
2023-05-09T04:54:47.748Z,100988.03
2023-05-09T04:59:55.878Z,100990.09
2023-05-09T05:05:17.913Z,100993.44
2023-05-09T05:10:23.202Z,100976.25
2023-05-09T05:15:34.758Z,100984.47
2023-05-09T05:20:44.921Z,100976.22
2023-05-09T05:25:50.429Z,100971.13
2023-05-09T05:30:56.864Z,100962.94
2023-05-09T05:36:02.012Z,100967.56
2023-05-09T05:41:07.822Z,100957.91
2023-05-09T05:46:13.406Z,100953.47
2023-05-09T05:51:19.498Z,100957.06
2023-05-09T05:56:25.193Z,100953.78
2023-05-09T06:01:30.910Z,100941.06
2023-05-09T06:06:36.801Z,100943.28
2023-05-09T06:11:42.397Z,100922.84
2023-05-09T06:16:47.784Z,100909.84
2023-05-09T06:21:53.426Z,100904.50
2023-05-09T06:26:59.017Z,100893.19
2023-05-09T06:32:04.396Z,100893.19
2023-05-09T06:37:09.766Z,100890.03
2023-05-09T06:42:15.414Z,100888.06
2023-05-09T06:47:22.023Z,100878.97
2023-05-09T06:52:27.566Z,100867.94
2023-05-09T06:57:33.559Z,100869.34
2023-05-09T07:02:42.897Z,100847.78
2023-05-09T07:07:48.498Z,100838.88
2023-05-09T07:12:54.607Z,100832.38
2023-05-09T07:18:00.161Z,100833.16
2023-05-09T07:23:08.412Z,100825.28
2023-05-09T07:28:14.068Z,100822.81
2023-05-09T07:33:19.304Z,100823.84
2023-05-09T07:38:24.789Z,100812.44
2023-05-09T07:43:29.894Z,100816.25
2023-05-09T07:48:34.392Z,100807.03
2023-05-09T07:53:39.311Z,100801.03
2023-05-09T07:58:44.450Z,100791.59
2023-05-09T08:03:49.573Z,100784.28
2023-05-09T08:08:55.067Z,100779.72
2023-05-09T08:14:00.418Z,100787.53
2023-05-09T08:19:05.564Z,100784.78
2023-05-09T08:24:10.966Z,100780.97
2023-05-09T08:29:16.524Z,100787.16
2023-05-09T08:34:22.871Z,100792.31
2023-05-09T08:39:28.070Z,100791.75
2023-05-09T08:44:33.816Z,100803.09
2023-05-09T08:49:39.170Z,100793.28
2023-05-09T08:54:45.220Z,100801.38
2023-05-09T08:59:53.859Z,100807.75
2023-05-09T09:04:59.026Z,100810.91
2023-05-09T09:10:06.365Z,100812.44
2023-05-09T09:15:19.154Z,100818.19
2023-05-09T09:20:28.171Z,100807.16
2023-05-09T09:25:33.617Z,100811.78
2023-05-09T09:30:55.663Z,100807.69
2023-05-09T09:36:01.337Z,100814.81
2023-05-09T09:41:07.251Z,100821.81
2023-05-09T09:46:13.244Z,100811.84
2023-05-09T09:51:19.985Z,100822.16
2023-05-09T09:56:44.045Z,100831.38
2023-05-09T10:02:07.519Z,100830.16
2023-05-09T10:07:15.062Z,100859.91
2023-05-09T10:12:22.193Z,100839.75
2023-05-09T10:17:28.769Z,100841.34
2023-05-09T10:22:37.710Z,100842.44
2023-05-09T10:27:47.116Z,100846.56
2023-05-09T10:32:56.786Z,100860.19
2023-05-09T10:38:04.451Z,100852.47
2023-05-09T10:43:09.790Z,100851.91
2023-05-09T10:48:16.421Z,100855.91
2023-05-09T10:53:25.592Z,100862.69
2023-05-09T10:58:37.561Z,100861.19
2023-05-09T11:04:01.237Z,100864.06
2023-05-09T11:09:33.967Z,100863.00
2023-05-09T11:14:51.124Z,100862.41
2023-05-09T11:20:01.125Z,100866.88
2023-05-09T11:25:17.905Z,100867.56
2023-05-09T11:30:23.890Z,100873.31
2023-05-09T11:35:29.819Z,100888.16
2023-05-09T11:40:35.566Z,100868.69
2023-05-09T11:45:43.990Z,100878.31
2023-05-09T11:50:50.927Z,100884.59
2023-05-09T11:55:56.547Z,100896.31
2023-05-09T12:01:03.277Z,100904.28
2023-05-09T12:06:08.862Z,100915.16
2023-05-09T12:11:18.523Z,100916.06
2023-05-09T12:16:24.405Z,100930.66
2023-05-09T12:21:30.826Z,100934.25
2023-05-09T12:26:36.392Z,100944.28
2023-05-09T12:31:42.852Z,100950.25
2023-05-09T12:36:54.795Z,100958.19
2023-05-09T12:42:02.011Z,100958.25
2023-05-09T12:47:07.929Z,100959.16
2023-05-09T12:52:26.546Z,100968.09
2023-05-09T12:57:33.812Z,100968.41
2023-05-09T13:02:42.482Z,100977.97
2023-05-09T13:07:48.212Z,100983.38
2023-05-09T13:12:54.706Z,101007.88
2023-05-09T13:17:59.543Z,100981.03
2023-05-09T13:23:05.573Z,100988.91
2023-05-09T13:28:10.948Z,100985.09
2023-05-09T13:33:25.153Z,100982.25
2023-05-09T13:38:33.826Z,101001.13
2023-05-09T13:43:44.077Z,100989.16
2023-05-09T13:48:49.910Z,101012.59
2023-05-09T13:53:57.271Z,100997.09
2023-05-09T13:59:04.014Z,100994.22
2023-05-09T14:04:09.757Z,101002.94
2023-05-09T14:09:17.337Z,100999.03
2023-05-09T14:14:25.888Z,101008.53
2023-05-09T14:19:34.541Z,101000.50
2023-05-09T14:24:45.160Z,101003.66
2023-05-09T14:29:51.550Z,101026.59
2023-05-09T14:34:58.960Z,101014.84
2023-05-09T14:40:11.064Z,101017.50
2023-05-09T14:45:18.002Z,101023.97
2023-05-09T14:50:23.735Z,101025.44
2023-05-09T14:55:30.180Z,101048.78
2023-05-09T15:00:36.384Z,101033.75
2023-05-09T15:05:46.207Z,101038.50
2023-05-09T15:10:55.725Z,101045.53
2023-05-09T15:16:06.100Z,101070.72
2023-05-09T15:21:18.560Z,101049.06
2023-05-09T15:26:24.512Z,101049.88
2023-05-09T15:31:34.533Z,101052.38
2023-05-09T15:36:44.052Z,101061.41
2023-05-09T15:41:52.654Z,101063.28
2023-05-09T15:46:59.847Z,101057.28
2023-05-09T15:52:15.521Z,101076.91
2023-05-09T15:57:21.118Z,101050.69
2023-05-09T16:02:27.786Z,101064.94
2023-05-09T16:07:35.747Z,101066.34
2023-05-09T16:12:41.675Z,101060.59
2023-05-09T16:17:47.989Z,101052.31
2023-05-09T16:22:52.832Z,101044.72
2023-05-09T16:27:58.353Z,101037.06
2023-05-09T16:33:06.836Z,101037.66
2023-05-09T16:38:12.239Z,101034.38
2023-05-09T16:43:17.905Z,101029.41
2023-05-09T16:48:26.105Z,101022.41
2023-05-09T16:53:32.439Z,101030.88
2023-05-09T16:58:37.458Z,101027.56
2023-05-09T17:03:43.806Z,101023.41
2023-05-09T17:08:49.872Z,101016.44
2023-05-09T17:13:54.868Z,101016.63
2023-05-09T17:18:59.991Z,101020.94
2023-05-09T17:24:04.743Z,101014.75
2023-05-09T17:29:10.160Z,101021.16
2023-05-09T17:34:15.544Z,101018.66
2023-05-09T17:39:20.514Z,101034.91
2023-05-09T17:44:25.618Z,101039.84
2023-05-09T17:49:31.252Z,101019.25
2023-05-09T17:54:35.647Z,101018.19
2023-05-09T17:59:42.720Z,101036.94
2023-05-09T18:04:47.849Z,101012.19
2023-05-09T18:09:52.805Z,101014.25
2023-05-09T18:14:57.831Z,101038.16
2023-05-09T18:20:02.169Z,101017.72
2023-05-09T18:25:07.460Z,101007.22
2023-05-09T18:30:12.856Z,101017.09
2023-05-09T18:35:17.860Z,101050.03
2023-05-09T18:40:23.143Z,101009.63
2023-05-09T18:45:28.386Z,101016.22
2023-05-09T18:50:33.789Z,101020.50
2023-05-09T18:55:38.781Z,101022.13
2023-05-09T19:00:44.200Z,101019.22
2023-05-09T19:05:49.282Z,101016.56
2023-05-09T19:10:54.522Z,101014.72
2023-05-09T19:15:59.755Z,101016.56
2023-05-09T19:21:04.930Z,101019.81
2023-05-09T19:26:11.355Z,101028.59
2023-05-09T19:31:19.461Z,101030.41
2023-05-09T19:36:24.650Z,101027.47
2023-05-09T19:41:29.618Z,101027.03
2023-05-09T19:46:34.937Z,101033.03
2023-05-09T19:51:40.507Z,101031.56
2023-05-09T19:56:44.785Z,101033.63
2023-05-09T20:01:49.852Z,101050.06
2023-05-09T20:06:55.423Z,101039.75
2023-05-09T20:12:04.888Z,101029.03
2023-05-09T20:17:09.880Z,101048.56
2023-05-09T20:22:14.838Z,101052.44
2023-05-09T20:27:19.760Z,101051.91
2023-05-09T20:32:25.607Z,101048.63
2023-05-09T20:37:30.646Z,101039.50
2023-05-09T20:42:36.155Z,101051.53
2023-05-09T20:47:41.179Z,101072.03
2023-05-09T20:52:46.105Z,101039.25
2023-05-09T20:57:51.099Z,101034.09
2023-05-09T21:02:58.777Z,101041.88
2023-05-09T21:08:03.787Z,101042.91
2023-05-09T21:13:09.974Z,101043.66
2023-05-09T21:18:14.891Z,101046.56
2023-05-09T21:23:19.768Z,101054.94
2023-05-09T21:28:24.909Z,101056.66
2023-05-09T21:33:30.916Z,101063.56
2023-05-09T21:38:36.081Z,101058.81
2023-05-09T21:43:40.863Z,101057.41
2023-05-09T21:48:45.951Z,101053.66
2023-05-09T21:53:51.205Z,101050.34
2023-05-09T21:58:56.172Z,101055.03
2023-05-09T22:04:01.317Z,101066.38
2023-05-09T22:09:07.737Z,101057.34
2023-05-09T22:14:12.749Z,101088.19
2023-05-09T22:19:18.702Z,101059.06
2023-05-09T22:24:23.674Z,101068.34
2023-05-09T22:29:29.129Z,101078.88
2023-05-09T22:34:34.023Z,101076.47
2023-05-09T22:39:39.157Z,101080.50
2023-05-09T22:44:44.612Z,101082.03
2023-05-09T22:49:50.925Z,101094.31
2023-05-09T22:54:55.868Z,101082.09
2023-05-09T23:00:01.001Z,101095.34
2023-05-09T23:05:06.190Z,101104.69
2023-05-09T23:10:11.226Z,101098.59
2023-05-09T23:15:16.130Z,101102.22
2023-05-09T23:20:21.043Z,101138.34
2023-05-09T23:25:26.137Z,101106.31
2023-05-09T23:30:31.160Z,101114.03
2023-05-09T23:35:35.651Z,101104.03
2023-05-09T23:40:41.105Z,101110.47
2023-05-09T23:45:46.109Z,101104.56
2023-05-09T23:50:54.971Z,101107.75
2023-05-09T23:55:59.752Z,101107.56
